Terminal Aerodrome Forecast
Issued by NWS Chicago, IL

Home | Current Version | Previous Version | Text Only | Print | Product List | Glossary Off
Versions: 1 2 3 4 5 6 7 8 9 10 11 12 13 14 15 16 17 18 19 20 21 22 23 24 25

323
FTUS43 KLOT 031731
TAFRFD
TAF
KRFD 031731Z 0318/0418 31011KT P6SM BKN050
     FM032000 25014G20KT P6SM BKN060
     FM040300 24011KT P6SM VCSH SCT040 BKN060
      TEMPO 0404/0407 4SM SHRA BKN010 OVC040
     FM040700 35015G22KT P6SM SCT007 BKN012
     FM041600 35017G24KT P6SM VCSH OVC030=

USA.gov is the U.S. government's official web portal to all federal, state and local government web resources and services.